createdAt,value
2023-08-24T00:01:06.119Z,3.90
2023-08-24T00:03:34.036Z,3.78
2023-08-24T00:06:01.876Z,4.10
2023-08-24T00:08:29.661Z,3.40
2023-08-24T00:10:57.134Z,4.00
2023-08-24T00:13:26.421Z,3.97
2023-08-24T00:15:55.195Z,4.20
2023-08-24T00:18:23.452Z,4.68
2023-08-24T00:20:50.950Z,5.18
2023-08-24T00:23:19.316Z,4.57
2023-08-24T00:25:46.794Z,4.35
2023-08-24T00:28:14.310Z,4.63
2023-08-24T00:30:43.286Z,4.60
2023-08-24T00:33:10.862Z,4.68
2023-08-24T00:35:38.463Z,5.00
2023-08-24T00:38:05.977Z,5.32
2023-08-24T00:40:33.555Z,5.88
2023-08-24T00:43:01.076Z,6.25
2023-08-24T00:45:28.670Z,5.82
2023-08-24T00:47:57.800Z,6.13
2023-08-24T00:50:25.378Z,5.68
2023-08-24T00:52:52.974Z,5.40
2023-08-24T00:55:20.854Z,5.85
2023-08-24T00:57:49.878Z,5.60
2023-08-24T01:00:18.521Z,5.75
2023-08-24T01:02:46.282Z,5.93
2023-08-24T01:05:15.750Z,5.40
2023-08-24T01:07:43.412Z,5.68
2023-08-24T01:10:12.742Z,5.13
2023-08-24T01:12:52.299Z,5.00
2023-08-24T01:15:23.991Z,4.40
2023-08-24T01:17:52.434Z,4.47
2023-08-24T01:20:21.912Z,3.95
2023-08-24T01:22:56.451Z,4.07
2023-08-24T01:25:30.706Z,4.40
2023-08-24T01:28:01.148Z,4.60
2023-08-24T01:30:29.698Z,4.65
2023-08-24T01:32:57.463Z,4.80
2023-08-24T01:35:24.984Z,4.60
2023-08-24T01:37:52.849Z,4.50
2023-08-24T01:40:24.972Z,4.72
2023-08-24T01:42:54.322Z,5.32
2023-08-24T01:45:24.719Z,4.65
2023-08-24T01:47:54.227Z,4.82
2023-08-24T01:50:21.924Z,5.35
2023-08-24T01:52:49.516Z,5.68
2023-08-24T01:55:19.959Z,5.90
2023-08-24T01:57:48.131Z,6.10
2023-08-24T02:00:16.372Z,6.35
2023-08-24T02:02:46.513Z,6.45
2023-08-24T02:05:14.052Z,6.63
2023-08-24T02:07:41.990Z,7.10
2023-08-24T02:10:09.682Z,6.85
2023-08-24T02:12:37.170Z,7.20
2023-08-24T02:15:05.403Z,6.95
2023-08-24T02:17:32.943Z,6.93
2023-08-24T02:20:01.875Z,5.63
2023-08-24T02:22:30.671Z,5.20
2023-08-24T02:24:58.326Z,6.25
2023-08-24T02:27:25.873Z,6.20
2023-08-24T02:29:53.362Z,5.82
2023-08-24T02:32:20.868Z,5.60
2023-08-24T02:34:48.380Z,5.78
2023-08-24T02:37:17.174Z,5.85
2023-08-24T02:39:44.752Z,5.38
2023-08-24T02:42:12.261Z,6.30
2023-08-24T02:44:39.763Z,5.40
2023-08-24T02:47:07.430Z,5.40
2023-08-24T02:49:34.919Z,5.43
2023-08-24T02:52:02.909Z,5.95
2023-08-24T02:54:31.842Z,6.50
2023-08-24T02:56:59.350Z,6.72
2023-08-24T02:59:27.149Z,6.20
2023-08-24T03:01:54.681Z,6.10
2023-08-24T03:04:22.602Z,5.40
2023-08-24T03:06:50.110Z,5.93
2023-08-24T03:09:17.630Z,4.85
2023-08-24T03:11:46.475Z,5.60
2023-08-24T03:14:22.977Z,5.80
2023-08-24T03:16:51.170Z,6.47
2023-08-24T03:19:19.148Z,6.15
2023-08-24T03:21:46.713Z,5.90
2023-08-24T03:24:14.196Z,5.82
2023-08-24T03:26:41.714Z,5.18
2023-08-24T03:29:10.516Z,5.20
2023-08-24T03:31:38.124Z,5.07
2023-08-24T03:34:15.058Z,4.57
2023-08-24T03:36:42.570Z,5.35
2023-08-24T03:39:10.126Z,5.88
2023-08-24T03:41:37.628Z,5.82
2023-08-24T03:44:05.446Z,5.90
2023-08-24T03:46:34.535Z,6.03
2023-08-24T03:49:02.103Z,6.05
2023-08-24T03:51:30.012Z,5.97
2023-08-24T03:53:57.533Z,6.20
2023-08-24T03:56:25.025Z,6.00
2023-08-24T03:58:52.619Z,5.95
2023-08-24T04:01:20.188Z,6.38
2023-08-24T04:03:49.099Z,5.68
2023-08-24T04:06:16.621Z,6.80
2023-08-24T04:08:44.162Z,6.15
2023-08-24T04:11:11.686Z,5.20
2023-08-24T04:13:39.252Z,5.18
2023-08-24T04:16:06.768Z,4.20
2023-08-24T04:18:34.628Z,4.55
2023-08-24T04:21:03.541Z,5.47
2023-08-24T04:26:34.774Z,5.70
2023-08-24T04:29:02.514Z,5.65
2023-08-24T04:31:29.980Z,5.70
2023-08-24T04:33:57.491Z,6.00
2023-08-24T04:36:25.105Z,4.88
2023-08-24T04:38:52.575Z,5.90
2023-08-24T04:41:20.157Z,5.15
2023-08-24T04:43:48.978Z,4.68
2023-08-24T04:46:16.573Z,5.30
2023-08-24T04:48:44.056Z,5.22
2023-08-24T04:51:11.563Z,4.50
2023-08-24T04:53:39.066Z,4.43
2023-08-24T04:56:06.562Z,4.32
2023-08-24T04:58:35.064Z,4.45
2023-08-24T05:01:03.944Z,5.30
2023-08-24T05:03:31.423Z,4.70
2023-08-24T05:05:58.895Z,5.20
2023-08-24T05:08:26.489Z,5.07
2023-08-24T05:10:54.086Z,5.15
2023-08-24T05:13:21.676Z,5.22
2023-08-24T05:15:49.161Z,5.63
2023-08-24T05:18:17.931Z,5.00
2023-08-24T05:20:45.426Z,4.63
2023-08-24T05:23:12.903Z,4.72
2023-08-24T05:25:40.406Z,5.00
2023-08-24T05:28:07.828Z,4.75
2023-08-24T05:30:35.768Z,4.60
2023-08-24T05:33:03.467Z,5.10
2023-08-24T05:35:32.327Z,5.35
2023-08-24T05:37:59.816Z,5.15
2023-08-24T05:40:27.440Z,4.55
2023-08-24T05:42:55.370Z,4.85
2023-08-24T05:45:24.768Z,4.35
2023-08-24T05:47:54.295Z,3.20
2023-08-24T05:50:22.174Z,4.22
2023-08-24T05:52:51.038Z,4.50
2023-08-24T05:55:18.571Z,4.30
2023-08-24T05:57:46.108Z,4.10
2023-08-24T06:00:14.904Z,3.92
2023-08-24T06:02:42.557Z,4.15
2023-08-24T06:05:10.563Z,4.68
2023-08-24T06:07:38.243Z,4.50
2023-08-24T06:10:08.464Z,3.90
2023-08-24T06:12:35.994Z,3.72
2023-08-24T06:15:05.743Z,4.45
2023-08-24T06:17:33.387Z,3.63
2023-08-24T06:20:01.055Z,3.67
2023-08-24T06:22:31.126Z,3.30
2023-08-24T06:25:00.759Z,3.08
2023-08-24T06:27:29.640Z,3.63
2023-08-24T06:29:57.158Z,3.33
2023-08-24T06:32:24.672Z,3.47
2023-08-24T06:34:52.594Z,3.40
2023-08-24T06:37:20.055Z,3.08
2023-08-24T06:39:47.526Z,2.78
2023-08-24T06:42:15.174Z,2.88
2023-08-24T06:44:52.845Z,3.63
2023-08-24T06:47:20.370Z,2.67
2023-08-24T06:49:47.901Z,3.00
2023-08-24T06:52:15.461Z,3.33
2023-08-24T06:54:43.044Z,2.88
2023-08-24T06:57:10.773Z,3.00
2023-08-24T06:59:38.315Z,2.65
2023-08-24T07:02:07.222Z,2.78
2023-08-24T07:04:35.425Z,2.90
2023-08-24T07:07:03.066Z,2.67
2023-08-24T07:09:30.550Z,2.47
2023-08-24T07:11:58.142Z,2.22
2023-08-24T07:14:25.633Z,2.40
2023-08-24T07:16:53.412Z,2.47
2023-08-24T07:19:22.262Z,2.80
2023-08-24T07:21:49.758Z,2.83
2023-08-24T07:24:21.238Z,3.00
2023-08-24T07:26:52.884Z,2.40
2023-08-24T07:29:20.748Z,2.20
2023-08-24T07:31:48.260Z,2.45
2023-08-24T07:34:16.347Z,1.90
2023-08-24T07:36:46.023Z,2.28
2023-08-24T07:39:15.763Z,2.40
2023-08-24T07:41:43.691Z,2.50
2023-08-24T07:44:11.250Z,2.58
2023-08-24T07:46:41.032Z,2.10
2023-08-24T07:49:08.534Z,2.22
2023-08-24T07:51:36.351Z,2.03
2023-08-24T07:54:07.964Z,2.05
2023-08-24T07:56:35.552Z,2.30
2023-08-24T07:59:03.032Z,2.10
2023-08-24T08:01:31.859Z,2.10
2023-08-24T08:03:59.522Z,1.90
2023-08-24T08:06:27.743Z,2.10
2023-08-24T08:08:55.541Z,2.10
2023-08-24T08:11:24.359Z,1.95
2023-08-24T08:13:51.852Z,2.03
2023-08-24T08:16:19.425Z,2.33
2023-08-24T08:18:47.063Z,2.20
2023-08-24T08:21:21.732Z,2.22
2023-08-24T08:23:50.028Z,1.90
2023-08-24T08:26:18.184Z,2.38
2023-08-24T08:28:47.007Z,2.35
2023-08-24T08:31:14.632Z,2.38
2023-08-24T08:33:42.204Z,2.22
2023-08-24T08:36:09.697Z,2.30
2023-08-24T08:38:37.279Z,2.42
2023-08-24T08:41:05.889Z,2.40
2023-08-24T08:43:43.104Z,2.30
2023-08-24T08:46:14.221Z,1.90
2023-08-24T08:48:42.362Z,1.67
2023-08-24T08:51:10.684Z,2.08
2023-08-24T08:53:38.478Z,2.00
2023-08-24T08:56:06.970Z,1.83
2023-08-24T08:58:37.175Z,2.10
2023-08-24T09:01:06.704Z,2.20
2023-08-24T09:03:36.687Z,2.33
2023-08-24T09:06:06.016Z,1.83
2023-08-24T09:08:33.703Z,2.20
2023-08-24T09:11:01.466Z,2.30
2023-08-24T09:13:29.005Z,1.98
2023-08-24T09:15:58.171Z,2.30
2023-08-24T09:18:37.611Z,1.90
2023-08-24T09:21:10.507Z,1.67
2023-08-24T09:23:38.108Z,1.92
2023-08-24T09:26:06.195Z,2.08
2023-08-24T09:28:33.686Z,2.17
2023-08-24T09:31:02.907Z,1.70
2023-08-24T09:33:31.554Z,1.90
2023-08-24T09:36:04.640Z,1.85
2023-08-24T09:38:32.153Z,2.20
2023-08-24T09:40:59.647Z,1.88
2023-08-24T09:43:27.232Z,1.90
2023-08-24T09:45:55.941Z,1.70
2023-08-24T09:48:25.202Z,1.70
2023-08-24T09:50:54.713Z,2.25
2023-08-24T09:53:25.029Z,1.92
2023-08-24T09:55:56.921Z,2.08
2023-08-24T09:58:25.076Z,1.73
2023-08-24T10:00:53.060Z,1.52
2023-08-24T10:03:22.438Z,1.88
2023-08-24T10:05:58.762Z,1.60
2023-08-24T10:08:32.053Z,1.73
2023-08-24T10:13:41.234Z,2.35
2023-08-24T10:16:10.001Z,1.60
2023-08-24T10:18:38.826Z,1.48
2023-08-24T10:21:06.613Z,1.20
2023-08-24T10:23:36.849Z,1.48
2023-08-24T10:26:05.061Z,1.73
2023-08-24T10:28:33.474Z,1.80
2023-08-24T10:31:01.916Z,1.80
2023-08-24T10:33:29.733Z,1.58
2023-08-24T10:35:57.286Z,1.65
2023-08-24T10:38:26.152Z,1.60
2023-08-24T10:40:56.202Z,1.52
2023-08-24T10:43:24.507Z,1.58
2023-08-24T10:45:59.360Z,1.60
2023-08-24T10:48:27.352Z,1.70
2023-08-24T10:51:21.711Z,1.77
2023-08-24T10:53:51.150Z,1.90
2023-08-24T10:56:21.414Z,1.83
2023-08-24T10:58:50.113Z,2.03
2023-08-24T11:01:18.788Z,2.00
2023-08-24T11:03:52.764Z,2.13
2023-08-24T11:06:20.962Z,2.10
2023-08-24T11:08:48.779Z,1.83
2023-08-24T11:11:26.167Z,2.15
2023-08-24T11:14:15.852Z,1.88
2023-08-24T11:16:45.156Z,1.80
2023-08-24T11:19:13.657Z,1.95
2023-08-24T11:21:41.922Z,2.10
2023-08-24T11:24:11.138Z,2.03
2023-08-24T11:26:44.045Z,1.80
2023-08-24T11:29:12.049Z,1.85
2023-08-24T11:31:43.019Z,1.77
2023-08-24T11:34:12.805Z,1.98
2023-08-24T11:36:43.811Z,2.08
2023-08-24T11:39:18.227Z,2.20
2023-08-24T11:41:47.440Z,2.22
2023-08-24T11:44:26.786Z,2.00
2023-08-24T11:49:25.678Z,1.55
2023-08-24T11:51:53.452Z,1.90
2023-08-24T11:54:31.042Z,2.30
2023-08-24T11:57:00.000Z,2.03
2023-08-24T11:59:27.984Z,2.50
2023-08-24T12:01:55.674Z,2.20
2023-08-24T12:04:23.385Z,2.30
2023-08-24T12:06:51.276Z,2.40
2023-08-24T12:09:18.968Z,1.90
2023-08-24T12:11:46.538Z,2.25
2023-08-24T12:14:20.045Z,1.95
2023-08-24T12:16:47.912Z,1.88
2023-08-24T12:19:15.463Z,2.28
2023-08-24T12:21:45.876Z,1.80
2023-08-24T12:24:15.877Z,2.37
2023-08-24T12:26:43.449Z,2.30
2023-08-24T12:29:11.473Z,2.13
2023-08-24T12:31:46.395Z,2.17
2023-08-24T12:34:16.984Z,2.33
2023-08-24T12:36:44.899Z,2.30
2023-08-24T12:39:14.323Z,1.85
2023-08-24T12:41:41.848Z,2.10
2023-08-24T12:44:18.418Z,2.00
2023-08-24T12:46:47.422Z,1.80
2023-08-24T12:49:14.944Z,2.17
2023-08-24T12:51:42.579Z,2.22
2023-08-24T12:54:11.634Z,1.80
2023-08-24T12:56:40.518Z,2.20
2023-08-24T12:59:08.104Z,2.20
2023-08-24T13:01:35.609Z,1.90
2023-08-24T13:04:04.549Z,2.00
2023-08-24T13:06:32.121Z,1.98
2023-08-24T13:08:59.906Z,1.90
2023-08-24T13:11:27.742Z,2.30
2023-08-24T13:13:55.266Z,2.17
2023-08-24T13:16:22.799Z,2.22
2023-08-24T13:18:50.320Z,3.65
2023-08-24T13:21:19.241Z,2.05
2023-08-24T13:23:48.912Z,1.85
2023-08-24T13:26:20.239Z,2.00
2023-08-24T13:28:48.110Z,2.10
2023-08-24T13:31:15.718Z,1.85
2023-08-24T13:33:43.232Z,2.33
2023-08-24T13:36:10.841Z,1.90
2023-08-24T13:38:39.698Z,2.10
2023-08-24T13:41:07.226Z,2.63
2023-08-24T13:43:34.733Z,2.17
2023-08-24T13:46:04.554Z,2.00
2023-08-24T13:48:35.084Z,2.22
2023-08-24T13:51:03.095Z,2.33
2023-08-24T13:53:30.681Z,1.80
2023-08-24T13:55:59.472Z,2.30
2023-08-24T13:58:27.073Z,1.48
2023-08-24T14:00:57.813Z,1.95
2023-08-24T14:03:25.610Z,2.10
2023-08-24T14:05:57.105Z,2.22
2023-08-24T14:08:24.672Z,2.33
2023-08-24T14:10:53.820Z,2.40
2023-08-24T14:13:22.657Z,2.05
2023-08-24T14:15:51.128Z,2.22
2023-08-24T14:18:18.998Z,2.13
2023-08-24T14:20:46.497Z,1.70
2023-08-24T14:23:14.127Z,2.13
2023-08-24T14:25:41.752Z,2.00
2023-08-24T14:28:11.143Z,1.75
2023-08-24T14:30:40.740Z,2.10
2023-08-24T14:33:08.281Z,2.20
2023-08-24T14:35:35.851Z,1.92
2023-08-24T14:38:03.388Z,2.15
2023-08-24T14:40:30.855Z,2.08
2023-08-24T14:42:58.375Z,1.90
2023-08-24T14:45:25.926Z,2.40
2023-08-24T14:47:55.122Z,2.45
2023-08-24T14:50:22.876Z,2.08
2023-08-24T14:52:50.354Z,1.80
2023-08-24T14:55:19.585Z,2.10
2023-08-24T14:57:47.147Z,1.85
2023-08-24T15:00:16.087Z,2.22
2023-08-24T15:02:43.816Z,2.15
2023-08-24T15:05:12.983Z,2.05
2023-08-24T15:07:40.457Z,2.55
2023-08-24T15:10:08.804Z,2.50
2023-08-24T15:12:36.292Z,2.58
2023-08-24T15:15:05.410Z,1.90
2023-08-24T15:17:33.563Z,2.50
2023-08-24T15:20:01.226Z,2.10
2023-08-24T15:22:30.655Z,2.35
2023-08-24T15:24:58.432Z,2.22
2023-08-24T15:27:26.526Z,2.25
2023-08-24T15:29:54.048Z,2.10
2023-08-24T15:32:21.664Z,2.30
2023-08-24T15:34:49.427Z,2.08
2023-08-24T15:37:17.201Z,2.30
2023-08-24T15:39:46.005Z,2.00
2023-08-24T15:42:13.539Z,2.10
2023-08-24T15:44:41.098Z,2.15
2023-08-24T15:47:09.383Z,2.10
2023-08-24T15:49:36.999Z,2.10
2023-08-24T15:52:04.788Z,1.88
2023-08-24T15:54:32.303Z,1.80
2023-08-24T15:57:01.153Z,2.03
2023-08-24T15:59:28.693Z,2.00
2023-08-24T16:01:56.175Z,2.13
2023-08-24T16:04:23.760Z,2.08
2023-08-24T16:06:51.324Z,1.80
2023-08-24T16:09:18.857Z,2.45
2023-08-24T16:11:46.354Z,2.03
2023-08-24T16:14:15.207Z,2.42
2023-08-24T16:16:42.715Z,2.38
2023-08-24T16:19:12.326Z,2.10
2023-08-24T16:21:39.998Z,2.33
2023-08-24T16:24:08.684Z,2.30
2023-08-24T16:26:36.995Z,2.13
2023-08-24T16:29:04.786Z,2.13
2023-08-24T16:31:33.646Z,1.90
2023-08-24T16:34:01.148Z,2.20
2023-08-24T16:36:28.728Z,2.17
2023-08-24T16:38:56.232Z,1.90
2023-08-24T16:41:24.058Z,2.50
2023-08-24T16:43:51.536Z,2.47
2023-08-24T16:46:19.144Z,2.30
2023-08-24T16:48:48.194Z,2.15
2023-08-24T16:51:15.737Z,2.40
2023-08-24T16:53:43.307Z,1.85
2023-08-24T16:56:10.852Z,2.05
2023-08-24T16:58:38.382Z,1.88
2023-08-24T17:01:07.738Z,2.00
2023-08-24T17:03:35.311Z,2.22
2023-08-24T17:06:04.303Z,1.73
2023-08-24T17:08:31.775Z,2.10
2023-08-24T17:10:59.305Z,1.50
2023-08-24T17:13:26.809Z,2.00
2023-08-24T17:15:54.509Z,2.00
2023-08-24T17:18:22.223Z,2.30
2023-08-24T17:20:49.772Z,1.85
2023-08-24T17:23:18.577Z,2.40
2023-08-24T17:25:47.527Z,2.10
2023-08-24T17:28:15.111Z,2.10
2023-08-24T17:30:47.329Z,2.00
2023-08-24T17:33:15.345Z,2.10
2023-08-24T17:35:42.938Z,2.17
2023-08-24T17:38:10.469Z,2.38
2023-08-24T17:40:39.886Z,2.00
2023-08-24T17:43:07.465Z,2.22
2023-08-24T17:45:35.024Z,2.33
2023-08-24T17:48:02.592Z,2.05
2023-08-24T17:50:30.370Z,2.50
2023-08-24T17:52:57.835Z,2.60
2023-08-24T17:55:25.380Z,2.92
2023-08-24T17:57:54.408Z,2.30
2023-08-24T18:00:22.607Z,2.40
2023-08-24T18:02:50.193Z,2.25
2023-08-24T18:05:17.980Z,2.47
2023-08-24T18:07:45.454Z,2.55
2023-08-24T18:10:12.976Z,2.90
2023-08-24T18:12:40.642Z,2.88
2023-08-24T18:15:14.951Z,2.75
2023-08-24T18:17:54.698Z,2.85
2023-08-24T18:20:22.485Z,3.30
2023-08-24T18:22:50.135Z,3.13
2023-08-24T18:25:17.948Z,3.90
2023-08-24T18:27:45.458Z,3.33
2023-08-24T18:30:15.165Z,3.67
2023-08-24T18:32:42.901Z,4.20
2023-08-24T18:35:10.854Z,4.20
2023-08-24T18:37:38.574Z,4.10
2023-08-24T18:40:07.778Z,3.80
2023-08-24T18:42:35.454Z,4.15
2023-08-24T18:45:03.256Z,4.18
2023-08-24T18:47:32.261Z,4.35
2023-08-24T18:49:59.938Z,4.50
2023-08-24T18:52:27.690Z,3.92
2023-08-24T18:54:55.235Z,4.32
2023-08-24T18:57:22.987Z,4.10
2023-08-24T18:59:50.681Z,3.92
2023-08-24T19:02:19.455Z,3.58
2023-08-24T19:04:48.485Z,3.83
2023-08-24T19:07:16.051Z,3.97
2023-08-24T19:09:44.103Z,3.60
2023-08-24T19:12:11.682Z,3.90
2023-08-24T19:14:39.512Z,3.88
2023-08-24T19:17:06.996Z,3.70
2023-08-24T19:19:34.495Z,3.88
2023-08-24T19:22:03.321Z,3.92
2023-08-24T19:24:30.848Z,3.38
2023-08-24T19:26:58.381Z,3.60
2023-08-24T19:29:27.506Z,3.30
2023-08-24T19:31:55.128Z,3.75
2023-08-24T19:34:22.659Z,4.30
2023-08-24T19:36:50.157Z,3.83
2023-08-24T19:39:19.117Z,3.70
2023-08-24T19:41:59.298Z,3.15
2023-08-24T19:44:27.579Z,3.30
2023-08-24T19:46:55.110Z,4.13
2023-08-24T19:49:22.617Z,4.47
2023-08-24T19:51:50.119Z,4.00
2023-08-24T19:54:18.910Z,3.75
2023-08-24T19:56:46.939Z,3.50
2023-08-24T19:59:14.444Z,3.42
2023-08-24T20:01:42.060Z,3.53
2023-08-24T20:04:09.699Z,3.88
2023-08-24T20:06:38.168Z,3.47
2023-08-24T20:09:07.184Z,3.63
2023-08-24T20:11:36.017Z,3.53
2023-08-24T20:14:06.618Z,3.50
2023-08-24T20:16:34.075Z,3.75
2023-08-24T20:19:01.956Z,3.30
2023-08-24T20:21:38.588Z,3.20
2023-08-24T20:24:06.686Z,3.33
2023-08-24T20:26:34.249Z,3.33
2023-08-24T20:29:03.221Z,3.03
2023-08-24T20:31:30.779Z,3.20
2023-08-24T20:33:58.526Z,3.25
2023-08-24T20:36:27.211Z,3.42
2023-08-24T20:38:54.688Z,3.50
2023-08-24T20:41:22.201Z,3.45
2023-08-24T20:43:49.693Z,3.33
2023-08-24T20:46:18.601Z,3.58
2023-08-24T20:48:46.473Z,3.92
2023-08-24T20:51:14.455Z,3.95
2023-08-24T20:53:41.909Z,3.78
2023-08-24T20:56:09.941Z,3.72
2023-08-24T20:58:37.927Z,3.40
2023-08-24T21:01:07.804Z,3.60
2023-08-24T21:03:36.902Z,3.60
2023-08-24T21:06:04.730Z,3.63
2023-08-24T21:08:32.401Z,3.08
2023-08-24T21:11:00.251Z,3.22
2023-08-24T21:13:27.757Z,3.40
2023-08-24T21:15:59.815Z,3.67
2023-08-24T21:18:27.336Z,3.25
2023-08-24T21:21:00.536Z,3.70
2023-08-24T21:23:28.090Z,3.50
2023-08-24T21:25:55.704Z,3.40
2023-08-24T21:28:23.217Z,4.13
2023-08-24T21:30:50.730Z,3.90
2023-08-24T21:33:18.409Z,4.35
2023-08-24T21:35:46.002Z,4.25
2023-08-24T21:38:14.852Z,4.10
2023-08-24T21:40:42.580Z,4.30
2023-08-24T21:43:10.230Z,4.28
2023-08-24T21:45:37.711Z,4.50
2023-08-24T21:48:06.144Z,4.70
2023-08-24T21:50:35.757Z,4.00
2023-08-24T21:53:03.320Z,4.00
2023-08-24T21:55:37.687Z,4.05
2023-08-24T21:58:05.693Z,4.18
2023-08-24T22:00:33.405Z,3.53
2023-08-24T22:03:00.950Z,3.30
2023-08-24T22:05:28.504Z,3.40
2023-08-24T22:07:56.010Z,3.60
2023-08-24T22:10:23.517Z,3.63
2023-08-24T22:12:52.439Z,3.75
2023-08-24T22:15:19.953Z,3.42
2023-08-24T22:17:47.511Z,3.10
2023-08-24T22:20:15.198Z,3.53
2023-08-24T22:22:42.644Z,3.25
2023-08-24T22:25:10.192Z,3.58
2023-08-24T22:27:37.845Z,3.40
2023-08-24T22:30:09.671Z,3.55
2023-08-24T22:32:37.698Z,3.50
2023-08-24T22:35:06.379Z,3.83
2023-08-24T22:37:33.927Z,3.72
2023-08-24T22:40:05.813Z,3.55
2023-08-24T22:42:33.385Z,3.45
2023-08-24T22:45:00.863Z,3.72
2023-08-24T22:47:29.732Z,3.78
2023-08-24T22:49:58.124Z,3.85
2023-08-24T22:52:25.849Z,3.55
2023-08-24T22:54:53.385Z,3.80
2023-08-24T22:57:21.130Z,3.42
2023-08-24T22:59:48.659Z,3.92
2023-08-24T23:02:16.992Z,3.60
2023-08-24T23:04:47.169Z,3.35
2023-08-24T23:07:16.159Z,3.40
2023-08-24T23:09:43.730Z,3.47
2023-08-24T23:12:11.297Z,3.72
2023-08-24T23:14:38.965Z,3.60
2023-08-24T23:17:06.813Z,3.80
2023-08-24T23:19:37.093Z,3.80
2023-08-24T23:22:06.211Z,3.58
2023-08-24T23:27:04.567Z,3.30
2023-08-24T23:29:32.064Z,3.72
2023-08-24T23:31:59.590Z,3.42
2023-08-24T23:34:27.205Z,4.13
2023-08-24T23:36:54.725Z,3.80
2023-08-24T23:39:23.604Z,4.07
2023-08-24T23:41:51.192Z,4.63
2023-08-24T23:44:27.845Z,3.92
2023-08-24T23:46:55.407Z,4.20
2023-08-24T23:49:22.956Z,3.70
2023-08-24T23:51:50.482Z,3.28
2023-08-24T23:54:17.945Z,4.55
2023-08-24T23:56:46.790Z,4.55
2023-08-24T23:59:14.248Z,4.40
